Time;durP1;ratioP1;P1;durP2;ratioP2;P2;SDS_P1;SDS_P2;PMS_P1;PMS_P2;Temp;Humidity;BMP_temperature;BMP_pressure;BME280_temperature;BME280_humidity;BME280_pressure;Samples;Min_cycle;Max_cycle;Signal;HPM_P1;HPM_P2
2022/11/28 00:01:21;;;;;;;9.07;6.03;;;;;;;7.55;100.00;100792.28;5023503;28;20461;-69
2022/11/28 00:03:46;;;;;;;7.63;6.22;;;;;;;7.57;100.00;100792.06;5027802;28;20408;-69
2022/11/28 00:06:12;;;;;;;8.18;6.18;;;;;;;7.57;100.00;100784.00;5031326;28;20147;-69
2022/11/28 00:08:37;;;;;;;10.30;6.65;;;;;;;7.58;100.00;100783.78;5030805;28;20037;-69
2022/11/28 00:11:08;;;;;;;9.57;5.80;;;;;;;7.60;100.00;100781.69;5031581;28;20501;-69
2022/11/28 00:13:33;;;;;;;9.40;6.80;;;;;;;7.57;100.00;100775.91;5032489;28;20473;-69
2022/11/28 00:16:00;;;;;;;10.20;6.22;;;;;;;7.58;100.00;100780.28;5026166;28;20092;-69
2022/11/28 00:18:27;;;;;;;8.07;5.53;;;;;;;7.61;100.00;100774.47;5013073;28;20038;-69
2022/11/28 00:21:02;;;;;;;6.75;5.78;;;;;;;7.58;100.00;100777.56;5032005;28;20041;-69
2022/11/28 00:23:29;;;;;;;9.38;5.90;;;;;;;7.61;100.00;100772.59;5030867;28;20068;-69
2022/11/28 00:25:58;;;;;;;8.35;5.50;;;;;;;7.61;100.00;100769.91;5029637;28;20112;-69
2022/11/28 00:28:24;;;;;;;7.93;5.40;;;;;;;7.65;100.00;100770.31;5032151;28;20443;-69
2022/11/28 00:30:49;;;;;;;10.15;4.95;;;;;;;7.68;100.00;100771.75;5026486;28;20029;-69
2022/11/28 00:33:14;;;;;;;6.50;4.38;;;;;;;7.71;100.00;100763.25;5012849;28;20465;-69
2022/11/28 00:35:40;;;;;;;6.32;4.88;;;;;;;7.75;100.00;100761.81;5026515;28;20037;-69
2022/11/28 00:38:05;;;;;;;6.07;4.72;;;;;;;7.76;100.00;100752.69;5030997;28;20388;-68
2022/11/28 00:40:32;;;;;;;8.07;4.85;;;;;;;7.79;100.00;100754.97;5027769;28;20029;-69
2022/11/28 00:42:59;;;;;;;6.78;4.60;;;;;;;7.80;100.00;100767.41;5017289;28;20053;-69
2022/11/28 00:45:24;;;;;;;7.63;4.95;;;;;;;7.79;100.00;100758.50;5025126;28;20380;-69
2022/11/28 00:47:50;;;;;;;6.65;4.63;;;;;;;7.80;100.00;100753.94;5030712;28;20024;-69
2022/11/28 00:50:15;;;;;;;8.18;4.97;;;;;;;7.84;100.00;100748.97;5030492;28;20025;-69
2022/11/28 00:52:40;;;;;;;8.25;4.40;;;;;;;7.84;100.00;100748.97;5027875;28;20075;-69
2022/11/28 00:55:06;;;;;;;6.00;4.60;;;;;;;7.86;100.00;100757.66;5013677;28;20447;-69
2022/11/28 00:57:31;;;;;;;6.28;4.57;;;;;;;7.85;100.00;100743.38;5026966;28;20116;-69
2022/11/28 00:59:56;;;;;;;8.55;5.20;;;;;;;7.85;100.00;100747.91;5031740;28;20064;-69
2022/11/28 01:02:22;;;;;;;6.43;4.38;;;;;;;7.83;100.00;100750.00;5025997;28;20045;-69
2022/11/28 01:04:47;;;;;;;5.55;4.78;;;;;;;7.83;100.00;100742.72;5031549;28;20069;-69
2022/11/28 01:07:12;;;;;;;6.53;5.18;;;;;;;7.83;100.00;100748.13;5028748;28;20476;-69
2022/11/28 01:09:38;;;;;;;6.82;4.97;;;;;;;7.85;100.00;100748.75;5030924;28;20041;-69
2022/11/28 01:12:03;;;;;;;9.70;4.82;;;;;;;7.85;100.00;100748.75;5031404;28;20045;-69
2022/11/28 01:14:29;;;;;;;6.93;4.93;;;;;;;7.81;100.00;100752.91;5031349;28;20030;-69
2022/11/28 01:16:55;;;;;;;9.07;4.97;;;;;;;7.81;100.00;100752.91;5030301;28;20033;-69
2022/11/28 01:19:20;;;;;;;8.90;5.22;;;;;;;7.80;100.00;100751.22;5030720;28;20408;-69
2022/11/28 01:21:46;;;;;;;8.05;5.03;;;;;;;7.80;100.00;100748.53;5029494;28;20025;-69
2022/11/28 01:24:12;;;;;;;7.65;4.78;;;;;;;7.79;100.00;100749.59;5024219;28;20033;-69
2022/11/28 01:26:39;;;;;;;6.35;4.82;;;;;;;7.79;100.00;100750.41;5012592;28;20033;-69
2022/11/28 01:29:04;;;;;;;5.68;4.78;;;;;;;7.83;100.00;100750.00;5027963;28;20087;-69
2022/11/28 01:31:29;;;;;;;6.78;4.80;;;;;;;7.79;100.00;100754.97;5029991;28;20030;-69
2022/11/28 01:33:55;;;;;;;6.60;4.65;;;;;;;7.77;100.00;100748.97;5031487;28;20033;-69
2022/11/28 01:36:21;;;;;;;6.93;4.50;;;;;;;7.78;100.00;100747.94;5027181;28;20034;-69
2022/11/28 01:38:48;;;;;;;6.40;4.57;;;;;;;7.79;100.00;100752.28;5026938;28;20017;-69
2022/11/28 01:41:17;;;;;;;8.68;4.32;;;;;;;7.76;100.00;100749.97;5029426;28;20144;-69
2022/11/28 01:44:06;;;;;;;5.60;4.25;;;;;;;7.76;100.00;100755.38;5029272;28;20547;-69
2022/11/28 01:46:32;;;;;;;4.53;4.05;;;;;;;7.75;100.00;100749.16;5029911;28;20106;-69
2022/11/28 01:49:11;;;;;;;8.77;4.50;;;;;;;7.75;100.00;100748.34;5031462;28;20053;-76
2022/11/28 01:51:39;;;;;;;8.57;4.35;;;;;;;7.72;100.00;100743.38;5021601;28;20037;-69
2022/11/28 01:54:05;;;;;;;7.18;4.20;;;;;;;7.72;100.00;100748.78;5019749;28;20033;-69
2022/11/28 01:56:38;;;;;;;8.45;5.00;;;;;;;7.72;100.00;100746.88;5019255;28;20029;-69
2022/11/28 01:59:07;;;;;;;9.32;4.35;;;;;;;7.72;100.00;100746.06;5031707;28;20468;-69
2022/11/28 02:01:33;;;;;;;9.35;4.60;;;;;;;7.70;100.00;100745.44;5024655;28;20044;-69
2022/11/28 02:03:58;;;;;;;7.78;4.38;;;;;;;7.68;100.00;100739.44;5021388;28;20029;-69
2022/11/28 02:06:25;;;;;;;8.63;3.97;;;;;;;7.66;100.00;100749.59;5030316;28;20030;-69
2022/11/28 02:08:52;;;;;;;8.77;4.40;;;;;;;7.70;100.00;100737.34;5034577;28;20117;-69
2022/11/28 02:12:05;;;;;;;4.80;4.13;;;;;;;7.69;100.00;100733.84;5032493;28;20081;-69
2022/11/28 02:14:55;;;;;;;6.70;4.28;;;;;;;7.67;100.00;100729.69;5033511;28;20075;-69
2022/11/28 02:17:39;;;;;;;6.38;3.95;;;;;;;7.69;100.00;100733.03;5034247;28;20056;-69
2022/11/28 02:20:29;;;;;;;7.55;4.10;;;;;;;7.66;100.00;100728.88;5034609;28;20032;-69
2022/11/28 02:23:38;;;;;;;7.32;4.40;;;;;;;7.71;100.00;100722.84;5033839;28;20473;-69
2022/11/28 02:26:32;;;;;;;6.68;3.97;;;;;;;7.73;100.00;100729.69;5010191;28;20270;-69
2022/11/28 02:29:37;;;;;;;4.60;3.60;;;;;;;7.74;100.00;100725.94;5033779;28;20368;-69
2022/11/28 02:32:29;;;;;;;7.90;4.88;;;;;;;7.71;100.00;100725.56;5033671;28;20098;-69
2022/11/28 02:35:09;;;;;;;6.90;4.07;;;;;;;7.69;100.00;100724.94;5028844;28;20036;-69
2022/11/28 02:38:11;;;;;;;4.63;3.97;;;;;;;7.65;100.00;100726.38;5032082;28;20168;-69
2022/11/28 02:40:46;;;;;;;5.93;4.13;;;;;;;7.60;100.00;100725.16;5033151;28;20033;-69
2022/11/28 02:43:32;;;;;;;4.35;3.70;;;;;;;7.56;100.00;100723.94;5034063;28;20030;-69
2022/11/28 02:46:27;;;;;;;5.57;3.60;;;;;;;7.58;100.00;100727.22;5033294;28;20022;-69
2022/11/28 02:49:04;;;;;;;6.00;3.80;;;;;;;7.54;100.00;100725.97;5031081;28;20389;-69
2022/11/28 02:51:29;;;;;;;5.57;3.95;;;;;;;7.52;100.00;100722.69;5014853;28;20401;-69
2022/11/28 02:53:57;;;;;;;8.37;4.13;;;;;;;7.53;100.00;100724.31;5018396;28;20028;-69
2022/11/28 02:56:25;;;;;;;5.00;4.07;;;;;;;7.44;100.00;100717.47;5031353;28;20296;-69
2022/11/28 02:58:50;;;;;;;6.45;4.20;;;;;;;7.50;100.00;100718.53;5033097;28;20033;-69
2022/11/28 03:01:21;;;;;;;5.45;4.22;;;;;;;7.53;100.00;100723.50;5030996;28;20033;-69
2022/11/28 03:04:05;;;;;;;6.13;3.85;;;;;;;7.54;100.00;100715.22;5027047;28;20032;-69
2022/11/28 03:06:44;;;;;;;6.07;3.70;;;;;;;7.49;100.00;100706.94;5030907;28;20037;-69
2022/11/28 03:09:18;;;;;;;6.18;3.55;;;;;;;7.52;100.00;100709.22;5027767;28;20022;-69
2022/11/28 03:12:02;;;;;;;4.30;3.65;;;;;;;7.52;100.00;100711.06;5013847;28;20481;-69
2022/11/28 03:14:33;;;;;;;5.30;3.40;;;;;;;7.48;100.00;100702.59;5029717;28;20037;-69
2022/11/28 03:17:18;;;;;;;4.40;3.22;;;;;;;7.50;100.00;100708.56;5031170;28;20143;-69
2022/11/28 03:20:00;;;;;;;6.28;3.58;;;;;;;7.51;100.00;100709.41;5031126;28;20377;-69
2022/11/28 03:22:28;;;;;;;;;;;;;;;7.59;100.00;100701.97;5032412;28;20104;-69
2022/11/28 03:25:11;;;;;;;4.57;3.25;;;;;;;7.54;100.00;100693.66;5031856;28;19920;-69
2022/11/28 03:28:06;;;;;;;5.00;3.70;;;;;;;7.53;100.00;100702.78;5032970;28;20055;-69
2022/11/28 03:30:41;;;;;;;4.50;3.47;;;;;;;7.49;100.00;100704.25;5032381;28;20033;-69
2022/11/28 03:33:08;;;;;;;5.88;3.53;;;;;;;7.48;100.00;100702.59;5033932;28;20472;-69
2022/11/28 03:35:39;;;;;;;3.70;3.40;;;;;;;7.47;100.00;100702.78;5030543;28;20436;-69
2022/11/28 03:38:10;;;;;;;4.85;3.83;;;;;;;7.45;100.00;100700.31;5032865;28;20045;-69
2022/11/28 03:40:41;;;;;;;4.03;3.40;;;;;;;7.48;100.00;100697.19;5032638;28;20037;-69
2022/11/28 03:43:15;;;;;;;5.35;4.07;;;;;;;7.44;100.00;100699.50;5031195;28;20447;-69
2022/11/28 03:45:45;;;;;;;5.03;3.65;;;;;;;7.43;100.00;100691.63;5028858;28;20519;-69
2022/11/28 03:48:30;;;;;;;6.15;3.85;;;;;;;7.47;100.00;100698.22;5032074;28;20092;-69
2022/11/28 03:51:11;;;;;;;5.38;3.67;;;;;;;7.47;100.00;100697.41;5030473;28;20109;-69
2022/11/28 03:53:58;;;;;;;6.28;3.40;;;;;;;7.47;100.00;100695.53;5030925;28;20033;-69
2022/11/28 03:56:43;;;;;;;3.80;3.40;;;;;;;7.42;100.00;100700.72;5030291;28;20037;-69
2022/11/28 03:59:14;;;;;;;4.70;3.30;;;;;;;7.40;100.00;100700.94;5024976;28;20029;-68
2022/11/28 04:01:46;;;;;;;4.93;3.65;;;;;;;7.40;100.00;100698.25;5019748;28;20109;-69
2022/11/28 04:04:17;;;;;;;7.40;3.80;;;;;;;7.34;100.00;100691.00;5030321;28;20421;-69
2022/11/28 04:07:04;;;;;;;7.70;3.58;;;;;;;7.38;100.00;100700.31;5020776;28;20033;-69
2022/11/28 04:09:46;;;;;;;6.03;3.90;;;;;;;7.40;100.00;100702.81;5025201;28;20404;-69
2022/11/28 04:12:29;;;;;;;5.70;3.40;;;;;;;7.44;100.00;100706.72;5032505;28;20044;-69
2022/11/28 04:15:02;;;;;;;5.70;3.80;;;;;;;7.38;100.00;100699.47;5029822;28;20033;-69
2022/11/28 04:17:36;;;;;;;5.03;3.78;;;;;;;7.40;100.00;100702.81;5023223;28;20037;-69
2022/11/28 04:20:12;;;;;;;4.38;3.75;;;;;;;7.39;100.00;100698.44;5020956;28;20381;-68
2022/11/28 04:22:47;;;;;;;7.90;3.72;;;;;;;7.37;100.00;100704.03;5031075;28;20033;-69
2022/11/28 04:25:15;;;;;;;5.97;3.90;;;;;;;7.41;100.00;100699.06;5029163;28;20048;-69
2022/11/28 04:27:46;;;;;;;4.10;3.70;;;;;;;7.39;100.00;100706.53;5019574;28;20037;-69
2022/11/28 04:30:12;;;;;;;8.05;3.70;;;;;;;7.37;100.00;100704.03;5026220;28;20032;-69
2022/11/28 04:32:41;;;;;;;5.90;3.72;;;;;;;7.38;100.00;100710.25;5023203;28;20037;-69
2022/11/28 04:35:16;;;;;;;4.18;3.70;;;;;;;7.40;100.00;100705.50;5031091;28;20038;-69
2022/11/28 04:37:43;;;;;;;7.55;3.65;;;;;;;7.40;100.00;100708.19;5030576;28;20459;-69
2022/11/28 04:40:10;;;;;;;7.13;4.20;;;;;;;7.34;100.00;100703.63;5032027;28;20060;-69
2022/11/28 04:42:45;;;;;;;7.25;4.00;;;;;;;7.37;100.00;100703.22;5023338;28;20040;-69
2022/11/28 04:45:20;;;;;;;5.75;4.07;;;;;;;7.36;100.00;100697.00;5023563;28;20029;-69
2022/11/28 04:47:46;;;;;;;8.43;3.72;;;;;;;7.38;100.00;100710.25;5031110;28;20405;-69
2022/11/28 04:50:12;;;;;;;4.55;4.15;;;;;;;7.35;100.00;100699.88;5016991;28;20191;-69
2022/11/28 04:52:49;;;;;;;4.63;4.03;;;;;;;7.37;100.00;100708.59;5012660;28;20038;-69
2022/11/28 04:55:39;;;;;;;5.47;4.13;;;;;;;7.40;100.00;100698.25;5024926;28;20037;-69
2022/11/28 04:58:15;;;;;;;5.53;3.83;;;;;;;7.40;100.00;100697.41;5030613;28;20033;-68
2022/11/28 05:00:43;;;;;;;4.47;4.07;;;;;;;7.39;100.00;100701.13;5028370;28;20036;-69
2022/11/28 05:03:09;;;;;;;4.80;3.90;;;;;;;7.39;100.00;100699.25;5031952;28;20040;-68
2022/11/28 05:05:46;;;;;;;6.22;4.07;;;;;;;7.41;100.00;100705.28;5025994;28;20026;-69
2022/11/28 05:08:11;;;;;;;5.35;4.32;;;;;;;7.40;100.00;100706.31;5031703;28;20063;-69
2022/11/28 05:10:37;;;;;;;5.28;4.05;;;;;;;7.43;100.00;100702.38;5031304;28;20053;-69
2022/11/28 05:13:02;;;;;;;4.65;4.25;;;;;;;7.41;100.00;100704.44;5016916;28;20092;-69
2022/11/28 05:15:28;;;;;;;6.38;4.20;;;;;;;7.40;100.00;100710.88;5025386;28;20370;-68
2022/11/28 05:17:53;;;;;;;4.82;4.10;;;;;;;7.41;100.00;100709.81;5019322;28;20084;-68
2022/11/28 05:20:18;;;;;;;4.30;3.92;;;;;;;7.43;100.00;100715.84;5031333;28;20025;-69
2022/11/28 05:22:43;;;;;;;4.60;4.07;;;;;;;7.41;100.00;100718.75;5031802;28;20057;-69
2022/11/28 05:25:09;;;;;;;4.72;4.25;;;;;;;7.41;100.00;100712.50;5029099;28;20038;-68
2022/11/28 05:27:34;;;;;;;5.25;4.35;;;;;;;7.47;100.00;100713.56;5031357;28;20029;-69
2022/11/28 05:30:00;;;;;;;6.20;4.53;;;;;;;7.42;100.00;100714.19;5024325;28;20469;-68
2022/11/28 05:32:30;;;;;;;6.07;4.75;;;;;;;7.44;100.00;100717.47;5033963;28;20041;-68
2022/11/28 05:34:55;;;;;;;7.03;4.82;;;;;;;7.46;100.00;100710.03;5034573;28;20037;-69
2022/11/28 05:37:20;;;;;;;8.32;4.95;;;;;;;7.45;100.00;100719.16;5033373;28;20506;-68
2022/11/28 05:39:45;;;;;;;5.00;4.45;;;;;;;7.47;100.00;100722.44;5034284;28;20072;-68
2022/11/28 05:42:11;;;;;;;5.85;4.63;;;;;;;7.46;100.00;100718.13;5036021;28;20026;-69
2022/11/28 05:44:36;;;;;;;4.93;4.50;;;;;;;7.44;100.00;100717.47;5028170;28;20030;-69
2022/11/28 05:47:01;;;;;;;7.40;5.10;;;;;;;7.45;100.00;100722.66;5033849;28;20464;-69
2022/11/28 05:49:27;;;;;;;5.28;4.70;;;;;;;7.44;100.00;100721.03;5035158;28;20065;-68
2022/11/28 05:51:53;;;;;;;6.47;4.70;;;;;;;7.47;100.00;100724.31;5035482;28;20033;-69
2022/11/28 05:54:18;;;;;;;4.90;4.40;;;;;;;7.48;100.00;100720.59;5034638;28;20029;-69
2022/11/28 05:56:43;;;;;;;6.75;5.50;;;;;;;7.46;100.00;100718.13;5034856;28;20030;-69
2022/11/28 05:59:08;;;;;;;5.18;4.68;;;;;;;7.47;100.00;100718.94;5032588;28;20087;-69
2022/11/28 06:01:34;;;;;;;6.88;5.28;;;;;;;7.44;100.00;100718.34;5013025;28;20126;-69
2022/11/28 06:03:59;;;;;;;6.35;5.60;;;;;;;7.47;100.00;100719.75;5032487;28;20033;-68
2022/11/28 06:06:30;;;;;;;5.97;5.38;;;;;;;7.47;100.00;100719.75;5019134;28;20428;-68
2022/11/28 06:08:56;;;;;;;5.50;5.00;;;;;;;7.48;100.00;100716.03;5031838;28;20034;-69
2022/11/28 06:11:23;;;;;;;5.88;5.28;;;;;;;7.47;100.00;100719.75;5032687;28;20137;-69
2022/11/28 06:13:48;;;;;;;5.82;5.32;;;;;;;7.51;100.00;100726.41;5033026;28;20044;-68
2022/11/28 06:16:19;;;;;;;6.78;5.25;;;;;;;7.49;100.00;100723.09;5031948;28;20033;-68
2022/11/28 06:18:45;;;;;;;6.18;5.57;;;;;;;7.53;100.00;100720.81;5032802;28;20381;-68
2022/11/28 06:21:12;;;;;;;5.80;5.28;;;;;;;7.51;100.00;100720.19;5034778;28;20039;-68
2022/11/28 06:23:38;;;;;;;7.25;5.43;;;;;;;7.53;100.00;100726.19;5033877;28;20495;-69
2022/11/28 06:26:13;;;;;;;6.00;5.30;;;;;;;7.52;100.00;100728.06;5030409;28;20026;-68
2022/11/28 06:28:39;;;;;;;5.93;5.30;;;;;;;7.52;100.00;100735.28;5028284;28;20038;-68
2022/11/28 06:31:12;;;;;;;5.82;5.25;;;;;;;7.54;100.00;100733.25;5024447;28;20025;-69
2022/11/28 06:33:38;;;;;;;5.80;5.30;;;;;;;7.54;100.00;100739.44;5025952;28;20034;-69
2022/11/28 06:36:04;;;;;;;6.10;5.50;;;;;;;7.54;100.00;100734.06;5020959;28;20021;-69
2022/11/28 06:38:31;;;;;;;6.40;5.60;;;;;;;7.55;100.00;100735.72;5024745;28;20030;-69
2022/11/28 06:40:58;;;;;;;6.85;5.13;;;;;;;7.56;100.00;100739.22;5030025;28;20075;-69
2022/11/28 06:43:23;;;;;;;6.95;6.35;;;;;;;7.53;100.00;100737.78;5035193;28;20045;-69
2022/11/28 06:45:48;;;;;;;6.80;5.80;;;;;;;7.54;100.00;100738.63;5032601;28;20017;-68
2022/11/28 06:48:14;;;;;;;6.70;6.00;;;;;;;7.55;100.00;100732.19;5034409;28;20469;-69
2022/11/28 06:50:39;;;;;;;7.07;6.28;;;;;;;7.55;100.00;100733.03;5034210;28;20067;-69
2022/11/28 06:53:04;;;;;;;10.27;6.32;;;;;;;7.59;100.00;100734.28;5031923;28;20056;-69
2022/11/28 06:55:30;;;;;;;6.95;6.15;;;;;;;7.58;100.00;100732.63;5029991;28;20022;-69
2022/11/28 06:57:55;;;;;;;6.72;6.13;;;;;;;7.60;100.00;100735.91;5034375;28;20041;-69
2022/11/28 07:00:20;;;;;;;6.80;6.10;;;;;;;7.59;100.00;100731.59;5032020;28;20067;-69
2022/11/28 07:02:45;;;;;;;7.78;6.18;;;;;;;7.63;100.00;100740.88;5030729;28;20037;-68
2022/11/28 07:05:11;;;;;;;7.07;6.40;;;;;;;7.62;100.00;100743.78;5031641;28;20070;-69
2022/11/28 07:07:36;;;;;;;7.00;6.30;;;;;;;7.65;100.00;100743.38;5031643;28;20029;-69
2022/11/28 07:10:02;;;;;;;6.60;6.00;;;;;;;7.66;100.00;100741.53;5033132;28;20032;-69
2022/11/28 07:12:28;;;;;;;7.95;6.15;;;;;;;7.67;100.00;100748.53;5032987;28;20230;-69
2022/11/28 07:14:53;;;;;;;7.53;6.38;;;;;;;7.68;100.00;100752.91;5032610;28;20441;-69
2022/11/28 07:17:18;;;;;;;7.53;6.85;;;;;;;7.65;100.00;100750.63;5031462;28;20037;-69
2022/11/28 07:19:44;;;;;;;7.10;6.40;;;;;;;7.65;100.00;100753.31;5033860;28;20028;-69
2022/11/28 07:22:10;;;;;;;7.88;7.13;;;;;;;7.63;100.00;100751.66;5032988;28;20388;-68
2022/11/28 07:24:36;;;;;;;8.02;7.22;;;;;;;7.60;100.00;100748.56;5031969;28;20512;-69
2022/11/28 07:27:01;;;;;;;7.43;6.55;;;;;;;7.63;100.00;100753.53;5026422;28;20036;-69
2022/11/28 07:29:34;;;;;;;7.88;7.07;;;;;;;7.62;100.00;100749.16;5031340;28;20033;-69
2022/11/28 07:31:59;;;;;;;8.23;6.80;;;;;;;7.61;100.00;100752.91;5015513;28;20389;-69
2022/11/28 07:34:25;;;;;;;7.32;6.63;;;;;;;7.65;100.00;100758.72;5014128;28;20036;-69
2022/11/28 07:36:50;;;;;;;8.93;6.80;;;;;;;7.65;100.00;100758.72;5027358;28;20064;-69
2022/11/28 07:39:16;;;;;;;7.78;6.97;;;;;;;7.63;100.00;100767.81;5032103;28;20040;-68
2022/11/28 07:41:41;;;;;;;8.48;6.90;;;;;;;7.63;100.00;100769.69;5030526;28;21518;-69
2022/11/28 07:44:07;;;;;;;7.88;6.45;;;;;;;7.67;100.00;100762.00;5033893;28;20043;-69
2022/11/28 07:46:32;;;;;;;7.90;7.10;;;;;;;7.65;100.00;100767.59;5029822;28;20145;-69
2022/11/28 07:48:58;;;;;;;7.65;6.63;;;;;;;7.66;100.00;100774.66;5029350;28;20043;-69
2022/11/28 07:51:26;;;;;;;7.80;6.88;;;;;;;7.68;100.00;100774.44;5031537;28;20061;-69
2022/11/28 07:53:52;;;;;;;8.35;7.50;;;;;;;7.67;100.00;100786.25;5017566;28;20038;-69
2022/11/28 07:56:20;;;;;;;8.35;6.50;;;;;;;7.68;100.00;100782.53;5030262;28;20041;-69
2022/11/28 07:58:47;;;;;;;9.13;7.13;;;;;;;7.67;100.00;100780.88;5031376;28;20038;-69
2022/11/28 08:01:25;;;;;;;7.80;7.00;;;;;;;7.70;100.00;100791.22;5028742;28;20477;-69
2022/11/28 08:03:51;;;;;;;8.15;7.18;;;;;;;7.69;100.00;100787.72;5031769;28;20060;-69
2022/11/28 08:06:18;;;;;;;9.77;6.50;;;;;;;7.70;100.00;100783.13;5029953;28;20060;-69
2022/11/28 08:08:45;;;;;;;7.78;6.90;;;;;;;7.68;100.00;100785.22;5025697;28;20040;-69
2022/11/28 08:11:12;;;;;;;7.22;6.53;;;;;;;7.72;100.00;100789.16;5031014;28;20045;-69
2022/11/28 08:13:38;;;;;;;9.07;7.45;;;;;;;7.75;100.00;100796.84;5031067;28;20041;-69
2022/11/28 08:16:06;;;;;;;8.50;6.82;;;;;;;7.75;100.00;100794.13;5031008;28;20025;-69
2022/11/28 08:18:32;;;;;;;8.30;7.13;;;;;;;7.76;100.00;100779.63;5032411;28;20049;-68
2022/11/28 08:21:28;;;;;;;7.70;6.90;;;;;;;7.79;100.00;100790.81;5026199;28;20857;-69
2022/11/28 08:23:57;;;;;;;7.72;6.60;;;;;;;7.78;100.00;100791.84;5026420;28;20514;-69
2022/11/28 08:26:25;;;;;;;7.80;7.10;;;;;;;7.76;100.00;100795.78;5031131;28;20064;-69
2022/11/28 08:28:52;;;;;;;8.85;7.40;;;;;;;7.77;100.00;100789.38;5030348;28;20033;-69
2022/11/28 08:31:26;;;;;;;8.55;7.07;;;;;;;7.80;100.00;100800.56;5030404;28;20030;-70
2022/11/28 08:33:53;;;;;;;8.93;7.53;;;;;;;7.81;100.00;100787.91;5023228;28;20034;-71
2022/11/28 08:36:20;;;;;;;8.98;7.30;;;;;;;7.81;100.00;100794.13;5028355;28;20473;-70
2022/11/28 08:38:46;;;;;;;9.55;7.82;;;;;;;7.86;100.00;100792.69;5028835;28;20388;-72
2022/11/28 08:41:17;;;;;;;9.90;8.40;;;;;;;7.86;100.00;100809.66;5038204;28;20088;-82
2022/11/28 08:43:43;;;;;;;9.60;7.25;;;;;;;7.93;100.00;100809.69;5029062;28;20041;-70
2022/11/28 08:46:11;;;;;;;9.23;8.25;;;;;;;7.86;100.00;100809.66;5027946;28;20037;-71
2022/11/28 08:48:37;;;;;;;10.60;7.70;;;;;;;7.87;100.00;100811.34;5030493;28;20053;-70
2022/11/28 08:51:04;;;;;;;11.07;8.30;;;;;;;7.89;100.00;100809.25;5031234;28;20080;-72
2022/11/28 08:53:29;;;;;;;9.82;8.00;;;;;;;7.88;100.00;100804.91;5026718;28;20473;-70
2022/11/28 08:55:55;;;;;;;9.77;8.20;;;;;;;7.86;100.00;100808.84;5026005;28;20026;-70
2022/11/28 08:58:20;;;;;;;11.70;8.82;;;;;;;7.86;100.00;100801.59;5012867;28;20029;-71
2022/11/28 09:00:46;;;;;;;9.30;8.40;;;;;;;7.89;100.00;100794.97;5019883;28;20649;-69
2022/11/28 09:03:14;;;;;;;9.57;8.57;;;;;;;7.92;100.00;100798.06;5032747;28;20026;-69
2022/11/28 09:05:41;;;;;;;10.07;8.25;;;;;;;7.90;100.00;100800.13;5033861;28;20029;-71
2022/11/28 09:08:06;;;;;;;10.02;7.65;;;;;;;7.98;100.00;100801.78;5022623;28;20064;-70
2022/11/28 09:10:35;;;;;;;9.75;8.75;;;;;;;7.96;100.00;100812.78;5036221;28;20446;-71
2022/11/28 09:16:44;;;;;;;9.75;8.05;;;;;;;7.99;100.00;100812.34;4963244;28;20055;-70
2022/11/28 09:19:09;;;;;;;9.48;7.38;;;;;;;8.02;100.00;100819.19;5017348;28;20061;-70
2022/11/28 09:21:35;;;;;;;9.77;8.00;;;;;;;8.01;100.00;100822.09;5024301;28;20552;-69
2022/11/28 09:24:00;;;;;;;9.18;7.65;;;;;;;8.04;100.00;100821.69;5018875;28;20025;-70
2022/11/28 09:26:26;;;;;;;9.30;8.30;;;;;;;8.02;100.00;100818.34;5035164;28;20120;-69
2022/11/28 09:28:53;;;;;;;10.90;8.48;;;;;;;8.06;100.00;100827.69;5033973;28;20044;-69
2022/11/28 09:31:19;;;;;;;9.93;8.00;;;;;;;8.05;100.00;100828.75;5025108;28;20037;-70
2022/11/28 09:33:46;;;;;;;10.45;8.60;;;;;;;8.05;100.00;100826.88;5031644;28;20567;-69
2022/11/28 09:36:13;;;;;;;9.15;7.20;;;;;;;8.08;100.00;100829.13;5025004;28;20032;-70
2022/11/28 09:38:39;;;;;;;10.98;8.20;;;;;;;8.09;100.00;100830.81;5036080;28;20521;-69
2022/11/28 09:41:27;;;;;;;9.07;8.13;;;;;;;8.14;100.00;100822.91;5019442;28;20109;-69
2022/11/28 09:43:56;;;;;;;12.55;8.80;;;;;;;8.16;100.00;100825.41;5019643;28;20041;-69
2022/11/28 09:46:28;;;;;;;11.57;8.48;;;;;;;8.15;100.00;100823.72;5026153;28;20028;-69
2022/11/28 09:48:57;;;;;;;;;;;;;;;8.27;100.00;100824.78;5035328;28;20034;-70
2022/11/28 09:51:41;;;;;;;10.40;8.25;;;;;;;8.25;100.00;100832.22;5024552;28;20458;-70
2022/11/28 09:54:36;;;;;;;9.85;8.43;;;;;;;8.29;100.00;100836.16;5032626;28;20033;-72
2022/11/28 09:57:07;;;;;;;11.57;8.32;;;;;;;8.26;100.00;100833.06;5034950;28;20116;-70
2022/11/28 09:59:33;;;;;;;9.93;8.83;;;;;;;8.27;100.00;100832.88;5016204;28;20392;-70
2022/11/28 10:02:13;;;;;;;11.65;9.32;;;;;;;8.27;100.00;100837.41;5045637;28;20280;-71
2022/11/28 10:04:52;;;;;;;12.65;9.30;;;;;;;8.29;100.00;100835.34;5018408;28;20109;-70
2022/11/28 10:07:36;;;;;;;13.60;10.23;;;;;;;8.30;100.00;100831.59;5046951;28;20033;-69
2022/11/28 10:10:15;;;;;;;11.60;9.40;;;;;;;8.33;100.00;100831.16;5058473;28;20046;-70
2022/11/28 10:12:43;;;;;;;12.23;10.40;;;;;;;8.33;100.00;100831.16;5035289;28;20125;-70
2022/11/28 10:15:40;;;;;;;11.30;9.65;;;;;;;8.34;100.00;100828.25;5050511;28;20029;-71
2022/11/28 10:18:34;;;;;;;12.00;10.65;;;;;;;8.37;100.00;100832.41;5032064;28;20041;-69
2022/11/28 10:21:30;;;;;;;11.98;10.75;;;;;;;8.42;100.00;100827.19;5033788;28;20487;-71
2022/11/28 10:24:19;;;;;;;13.98;10.77;;;;;;;8.47;100.00;100832.84;5013425;28;20041;-71
2022/11/28 10:26:49;;;;;;;11.57;9.65;;;;;;;8.47;100.00;100826.59;5032759;28;20028;-69
2022/11/28 10:29:42;;;;;;;12.55;11.25;;;;;;;8.47;100.00;100826.59;5032772;28;20036;-70
2022/11/28 10:32:15;;;;;;;13.23;11.02;;;;;;;8.46;100.00;100824.97;5017302;28;20033;-71
2022/11/28 10:34:49;;;;;;;12.93;11.27;;;;;;;8.50;100.00;100829.72;5022115;28;20033;-68
2022/11/28 10:37:24;;;;;;;12.85;11.50;;;;;;;8.50;100.00;100832.41;5030655;28;20465;-73
2022/11/28 10:39:49;;;;;;;15.57;10.95;;;;;;;8.50;100.00;100827.03;5033160;28;20029;-71
2022/11/28 10:42:34;;;;;;;14.35;11.82;;;;;;;8.54;100.00;100832.00;5033929;28;20036;-71
2022/11/28 10:45:05;;;;;;;13.63;11.77;;;;;;;8.53;100.00;100833.88;5028460;28;20080;-72
2022/11/28 10:47:42;;;;;;;15.82;11.85;;;;;;;8.55;100.00;100839.88;5014779;28;20034;-71
2022/11/28 10:50:13;;;;;;;15.82;13.07;;;;;;;8.54;100.00;100843.59;5014441;28;20040;-72
2022/11/28 10:52:46;;;;;;;15.70;13.73;;;;;;;8.52;100.00;100849.19;5015606;28;20454;-71
2022/11/28 10:55:20;;;;;;;15.48;13.18;;;;;;;8.54;100.00;100843.59;5032279;28;20036;-71
2022/11/28 10:58:07;;;;;;;16.80;13.88;;;;;;;8.57;100.00;100845.06;5034243;28;20036;-72
2022/11/28 11:00:35;;;;;;;17.65;14.25;;;;;;;8.55;100.00;100845.25;5026530;28;20040;-71
2022/11/28 11:03:02;;;;;;;18.52;15.00;;;;;;;8.55;100.00;100842.56;5012871;28;20033;-70
2022/11/28 11:05:31;;;;;;;19.42;15.38;;;;;;;8.54;100.00;100842.78;5014276;28;20529;-71
2022/11/28 11:08:01;;;;;;;21.17;14.63;;;;;;;8.52;100.00;100848.38;5017324;28;20052;-72
2022/11/28 11:10:38;;;;;;;18.70;14.52;;;;;;;8.56;100.00;100841.53;5030981;28;20029;-72
2022/11/28 11:13:24;;;;;;;20.15;15.15;;;;;;;8.60;100.00;100841.94;5029261;28;20034;-71
2022/11/28 11:16:08;;;;;;;23.48;16.52;;;;;;;8.58;100.00;100834.06;5026263;28;20029;-83
2022/11/28 11:18:37;;;;;;;20.15;16.50;;;;;;;8.56;100.00;100835.28;5031803;28;20029;-71
2022/11/28 11:21:13;;;;;;;21.98;15.30;;;;;;;8.56;100.00;100836.16;5033920;28;20040;-71
2022/11/28 11:23:38;;;;;;;21.45;17.75;;;;;;;8.56;100.00;100838.00;5026106;28;20034;-70
2022/11/28 11:26:04;;;;;;;23.88;17.63;;;;;;;8.57;100.00;100832.38;5033330;28;20048;-70
2022/11/28 11:28:47;;;;;;;21.20;16.65;;;;;;;8.62;100.00;100839.84;5031676;28;20499;-71
2022/11/28 11:31:14;;;;;;;22.90;16.70;;;;;;;8.62;100.00;100839.84;5033467;28;20036;-71
2022/11/28 11:33:41;;;;;;;23.77;18.73;;;;;;;8.61;100.00;100839.03;5029894;28;20034;-70
2022/11/28 11:36:21;;;;;;;23.67;18.52;;;;;;;8.64;100.00;100830.50;5033422;28;20524;-70
2022/11/28 11:38:47;;;;;;;24.75;18.67;;;;;;;8.65;100.00;100829.47;5014016;28;20041;-71
2022/11/28 11:41:27;;;;;;;24.85;18.77;;;;;;;8.67;100.00;100826.56;5017529;28;20072;-70
2022/11/28 11:43:52;;;;;;;27.02;20.13;;;;;;;8.66;100.00;100824.91;5032733;28;20548;-70